createdAt,value
2023-04-05T00:00:39.189Z,1021.06
2023-04-05T00:01:38.558Z,1021.08
2023-04-05T00:02:39.256Z,1021.08
2023-04-05T00:03:38.595Z,1021.09
2023-04-05T00:04:38.968Z,1021.07
2023-04-05T00:05:39.194Z,1021.09
2023-04-05T00:06:39.192Z,1021.06
2023-04-05T00:07:39.183Z,1021.03
2023-04-05T00:08:38.479Z,1021.04
2023-04-05T00:09:38.485Z,1021.05
2023-04-05T00:10:39.305Z,1020.97
2023-04-05T00:11:39.139Z,1020.99
2023-04-05T00:12:39.152Z,1020.98
2023-04-05T00:13:39.394Z,1020.95
2023-04-05T00:14:39.109Z,1020.99
2023-04-05T00:15:38.434Z,1020.92
2023-04-05T00:16:38.442Z,1020.97
2023-04-05T00:17:39.186Z,1020.89
2023-04-05T00:18:39.067Z,1020.92
2023-04-05T00:19:39.055Z,1020.86
2023-04-05T00:20:39.277Z,1020.84
2023-04-05T00:21:39.034Z,1020.83
2023-04-05T00:22:38.340Z,1020.83
2023-04-05T00:23:39.024Z,1020.74
2023-04-05T00:24:39.007Z,1020.87
2023-04-05T00:25:38.326Z,1020.81
2023-04-05T00:26:38.981Z,1020.80
2023-04-05T00:27:38.287Z,1020.82
2023-04-05T00:28:38.265Z,1020.81
2023-04-05T00:29:38.958Z,1020.84
2023-04-05T00:30:39.229Z,1020.82
2023-04-05T00:31:38.956Z,1020.83
2023-04-05T00:32:38.257Z,1020.83
2023-04-05T00:33:38.216Z,1020.83
2023-04-05T00:34:38.903Z,1020.87
2023-04-05T00:35:38.256Z,1020.87
2023-04-05T00:36:38.874Z,1020.93
2023-04-05T00:37:38.869Z,1020.89
2023-04-05T00:38:38.174Z,1020.87
2023-04-05T00:39:38.158Z,1020.86
2023-04-05T00:40:38.816Z,1020.90
2023-04-05T00:41:38.838Z,1020.88
2023-04-05T00:42:39.093Z,1020.89
2023-04-05T00:43:39.074Z,1020.88
2023-04-05T00:44:39.046Z,1020.86
2023-04-05T00:45:39.071Z,1020.82
2023-04-05T00:46:38.178Z,1020.78
2023-04-05T00:47:38.151Z,1020.82
2023-04-05T00:48:38.753Z,1020.82
2023-04-05T00:49:38.751Z,1020.82
2023-04-05T00:50:38.599Z,1020.87
2023-04-05T00:51:38.720Z,1020.84
2023-04-05T00:52:38.060Z,1020.85
2023-04-05T00:53:38.711Z,1020.86
2023-04-05T00:54:38.681Z,1020.85
2023-04-05T00:55:38.001Z,1020.83
2023-04-05T00:56:37.982Z,1020.83
2023-04-05T00:57:38.649Z,1020.87
2023-04-05T00:58:38.635Z,1020.83
2023-04-05T00:59:38.629Z,1020.81
2023-04-05T01:00:38.806Z,1020.83
2023-04-05T01:01:38.892Z,1020.75
2023-04-05T01:02:38.880Z,1020.74
2023-04-05T01:03:38.585Z,1020.73
2023-04-05T01:04:38.616Z,1020.73
2023-04-05T01:05:38.841Z,1020.71
2023-04-05T01:06:38.552Z,1020.70
2023-04-05T01:07:38.820Z,1020.69
2023-04-05T01:08:37.839Z,1020.73
2023-04-05T01:09:38.532Z,1020.69
2023-04-05T01:10:38.491Z,1020.73
2023-04-05T01:11:38.511Z,1020.64
2023-04-05T01:12:38.485Z,1020.58
2023-04-05T01:13:38.472Z,1020.59
2023-04-05T01:14:38.463Z,1020.61
2023-04-05T01:15:37.841Z,1020.58
2023-04-05T01:16:38.438Z,1020.57
2023-04-05T01:17:37.828Z,1020.54
2023-04-05T01:18:38.419Z,1020.53
2023-04-05T01:19:38.668Z,1020.49
2023-04-05T01:20:38.435Z,1020.45
2023-04-05T01:21:38.385Z,1020.42
2023-04-05T01:22:38.641Z,1020.46
2023-04-05T01:23:38.630Z,1020.42
2023-04-05T01:24:38.362Z,1020.44
2023-04-05T01:25:38.348Z,1020.49
2023-04-05T01:26:37.649Z,1020.47
2023-04-05T01:27:38.594Z,1020.46
2023-04-05T01:28:38.586Z,1020.41
2023-04-05T01:29:38.302Z,1020.40
2023-04-05T01:30:38.492Z,1020.43
2023-04-05T01:31:37.702Z,1020.43
2023-04-05T01:32:38.293Z,1020.48
2023-04-05T01:33:38.259Z,1020.38
2023-04-05T01:34:37.572Z,1020.38
2023-04-05T01:35:38.227Z,1020.38
2023-04-05T01:36:37.558Z,1020.40
2023-04-05T01:37:38.228Z,1020.38
2023-04-05T01:38:37.557Z,1020.36
2023-04-05T01:39:37.523Z,1020.36
2023-04-05T01:40:38.244Z,1020.36
2023-04-05T01:41:38.177Z,1020.38
2023-04-05T01:42:38.168Z,1020.38
2023-04-05T01:43:37.473Z,1020.37
2023-04-05T01:44:37.472Z,1020.37
2023-04-05T01:45:38.130Z,1020.37
2023-04-05T01:46:38.177Z,1020.40
2023-04-05T01:47:38.165Z,1020.38
2023-04-05T01:48:38.108Z,1020.36
2023-04-05T01:49:38.099Z,1020.39
2023-04-05T01:50:37.565Z,1020.32
2023-04-05T01:51:37.508Z,1020.35
2023-04-05T01:52:37.659Z,1020.36
2023-04-05T01:53:38.055Z,1020.41
2023-04-05T01:54:38.052Z,1020.37
2023-04-05T01:55:37.390Z,1020.31
2023-04-05T01:56:37.450Z,1020.31
2023-04-05T01:57:38.017Z,1020.36
2023-04-05T01:58:38.051Z,1020.35
2023-04-05T01:59:38.165Z,1020.36
2023-04-05T02:00:37.484Z,1020.30
2023-04-05T02:01:37.434Z,1020.32
2023-04-05T02:02:38.263Z,1020.34
2023-04-05T02:03:38.027Z,1020.39
2023-04-05T02:04:37.452Z,1020.33
2023-04-05T02:05:37.501Z,1020.30
2023-04-05T02:06:37.302Z,1020.32
2023-04-05T02:07:37.467Z,1020.35
2023-04-05T02:08:37.227Z,1020.28
2023-04-05T02:09:37.984Z,1020.35
2023-04-05T02:10:37.523Z,1020.35
2023-04-05T02:11:37.948Z,1020.38
2023-04-05T02:12:37.195Z,1020.30
2023-04-05T02:13:37.224Z,1020.35
2023-04-05T02:14:37.835Z,1020.33
2023-04-05T02:15:37.133Z,1020.32
2023-04-05T02:16:37.822Z,1020.31
2023-04-05T02:17:37.159Z,1020.37
2023-04-05T02:18:37.789Z,1020.33
2023-04-05T02:19:37.153Z,1020.32
2023-04-05T02:20:37.811Z,1020.32
2023-04-05T02:21:37.742Z,1020.32
2023-04-05T02:22:37.746Z,1020.30
2023-04-05T02:23:38.008Z,1020.32
2023-04-05T02:24:37.040Z,1020.29
2023-04-05T02:25:37.068Z,1020.33
2023-04-05T02:26:37.049Z,1020.28
2023-04-05T02:27:37.717Z,1020.31
2023-04-05T02:28:37.684Z,1020.24
2023-04-05T02:29:37.676Z,1020.24
2023-04-05T02:30:36.976Z,1020.30
2023-04-05T02:31:37.039Z,1020.33
2023-04-05T02:32:37.660Z,1020.34
2023-04-05T02:33:36.982Z,1020.26
2023-04-05T02:34:37.614Z,1020.32
2023-04-05T02:35:37.756Z,1020.28
2023-04-05T02:36:37.577Z,1020.29
2023-04-05T02:37:37.593Z,1020.31
2023-04-05T02:38:36.897Z,1020.34
2023-04-05T02:39:36.879Z,1020.31
2023-04-05T02:40:37.550Z,1020.33
2023-04-05T02:41:37.523Z,1020.31
2023-04-05T02:42:36.852Z,1020.34
2023-04-05T02:43:36.836Z,1020.31
2023-04-05T02:44:36.810Z,1020.27
2023-04-05T02:45:37.526Z,1020.21
2023-04-05T02:46:37.473Z,1020.22
2023-04-05T02:47:36.861Z,1020.23
2023-04-05T02:48:36.790Z,1020.17
2023-04-05T02:49:36.982Z,1020.18
2023-04-05T02:50:36.759Z,1020.12
2023-04-05T02:51:37.413Z,1020.15
2023-04-05T02:52:36.764Z,1020.13
2023-04-05T02:53:36.736Z,1020.11
2023-04-05T02:54:36.735Z,1020.08
2023-04-05T02:55:37.391Z,1020.12
2023-04-05T02:56:36.707Z,1020.07
2023-04-05T02:57:37.365Z,1020.06
2023-04-05T02:58:37.351Z,1020.06
2023-04-05T02:59:36.671Z,1020.06
2023-04-05T03:00:36.670Z,1020.06
2023-04-05T03:01:36.825Z,1020.08
2023-04-05T03:02:36.727Z,1020.06
2023-04-05T03:03:36.632Z,1020.05
2023-04-05T03:04:37.545Z,1020.07
2023-04-05T03:05:36.584Z,1020.03
2023-04-05T03:06:36.599Z,1020.02
2023-04-05T03:07:36.580Z,1020.03
2023-04-05T03:08:37.251Z,1020.06
2023-04-05T03:09:37.241Z,1020.07
2023-04-05T03:10:37.230Z,1020.05
2023-04-05T03:11:36.535Z,1020.07
2023-04-05T03:12:37.217Z,1020.07
2023-04-05T03:13:36.519Z,1020.07
2023-04-05T03:14:36.525Z,1020.04
2023-04-05T03:15:37.188Z,1020.00
2023-04-05T03:16:38.075Z,1019.99
2023-04-05T03:17:36.496Z,1020.00
2023-04-05T03:18:36.537Z,1019.98
2023-04-05T03:19:36.493Z,1019.99
2023-04-05T03:20:36.435Z,1019.98
2023-04-05T03:21:37.090Z,1020.04
2023-04-05T03:22:36.416Z,1020.00
2023-04-05T03:23:36.420Z,1020.00
2023-04-05T03:24:36.383Z,1020.00
2023-04-05T03:25:36.386Z,1020.08
2023-04-05T03:26:36.391Z,1020.05
2023-04-05T03:27:36.355Z,1020.09
2023-04-05T03:28:36.350Z,1020.07
2023-04-05T03:29:37.033Z,1020.04
2023-04-05T03:30:37.028Z,1020.04
2023-04-05T03:31:37.029Z,1020.04
2023-04-05T03:32:38.244Z,1020.03
2023-04-05T03:33:36.283Z,1020.03
2023-04-05T03:34:36.963Z,1020.02
2023-04-05T03:35:36.283Z,1020.01
2023-04-05T03:36:36.930Z,1019.98
2023-04-05T03:37:36.935Z,1020.01
2023-04-05T03:38:36.243Z,1020.01
2023-04-05T03:39:36.322Z,1020.00
2023-04-05T03:40:36.904Z,1020.02
2023-04-05T03:41:36.219Z,1019.97
2023-04-05T03:42:36.201Z,1020.01
2023-04-05T03:43:36.876Z,1020.01
2023-04-05T03:44:36.873Z,1020.03
2023-04-05T03:45:36.857Z,1020.02
2023-04-05T03:46:36.841Z,1019.99
2023-04-05T03:47:36.183Z,1020.04
2023-04-05T03:48:36.321Z,1020.00
2023-04-05T03:49:36.392Z,1019.97
2023-04-05T03:50:36.201Z,1019.95
2023-04-05T03:51:36.107Z,1019.97
2023-04-05T03:52:36.085Z,1020.00
2023-04-05T03:53:36.105Z,1019.96
2023-04-05T03:54:36.763Z,1019.95
2023-04-05T03:55:36.986Z,1020.00
2023-04-05T03:56:36.138Z,1019.97
2023-04-05T03:57:36.049Z,1019.98
2023-04-05T03:58:36.041Z,1019.96
2023-04-05T03:59:36.215Z,1019.97
2023-04-05T04:00:36.065Z,1020.01
2023-04-05T04:01:36.671Z,1019.97
2023-04-05T04:02:36.855Z,1019.99
2023-04-05T04:03:35.967Z,1019.99
2023-04-05T04:04:35.994Z,1019.92
2023-04-05T04:05:36.641Z,1019.95
2023-04-05T04:06:35.969Z,1019.90
2023-04-05T04:07:35.929Z,1019.96
2023-04-05T04:08:35.918Z,1019.97
2023-04-05T04:09:35.941Z,1019.93
2023-04-05T04:10:36.633Z,1019.90
2023-04-05T04:11:35.914Z,1019.87
2023-04-05T04:12:36.565Z,1019.90
2023-04-05T04:13:36.564Z,1019.88
2023-04-05T04:14:35.879Z,1019.86
2023-04-05T04:15:36.536Z,1019.87
2023-04-05T04:16:35.891Z,1019.91
2023-04-05T04:17:36.546Z,1019.85
2023-04-05T04:18:36.510Z,1019.85
2023-04-05T04:19:36.496Z,1019.90
2023-04-05T04:20:36.485Z,1019.87
2023-04-05T04:21:36.453Z,1019.94
2023-04-05T04:22:36.467Z,1019.91
2023-04-05T04:23:35.764Z,1019.85
2023-04-05T04:24:35.743Z,1019.90
2023-04-05T04:25:36.437Z,1019.90
2023-04-05T04:26:36.403Z,1019.88
2023-04-05T04:27:35.731Z,1019.94
2023-04-05T04:28:35.724Z,1019.90
2023-04-05T04:29:36.391Z,1019.91
2023-04-05T04:30:36.378Z,1019.92
2023-04-05T04:31:36.396Z,1019.85
2023-04-05T04:32:35.736Z,1019.91
2023-04-05T04:33:36.353Z,1019.86
2023-04-05T04:34:36.339Z,1019.85
2023-04-05T04:35:35.659Z,1019.85
2023-04-05T04:36:35.649Z,1019.85
2023-04-05T04:37:36.309Z,1019.85
2023-04-05T04:38:36.303Z,1019.89
2023-04-05T04:39:37.807Z,1019.84
2023-04-05T04:40:35.610Z,1019.82
2023-04-05T04:41:35.601Z,1019.85
2023-04-05T04:42:36.258Z,1019.82
2023-04-05T04:43:36.252Z,1019.76
2023-04-05T04:44:35.540Z,1019.78
2023-04-05T04:45:35.558Z,1019.78
2023-04-05T04:46:35.527Z,1019.76
2023-04-05T04:47:35.543Z,1019.81
2023-04-05T04:48:36.199Z,1019.79
2023-04-05T04:49:36.212Z,1019.83
2023-04-05T04:50:36.173Z,1019.82
2023-04-05T04:51:37.445Z,1019.80
2023-04-05T04:52:35.454Z,1019.80
2023-04-05T04:53:37.399Z,1019.80
2023-04-05T04:54:35.441Z,1019.80
2023-04-05T04:55:36.137Z,1019.80
2023-04-05T04:56:36.096Z,1019.78
2023-04-05T04:57:36.103Z,1019.80
2023-04-05T04:58:36.367Z,1019.81
2023-04-05T04:59:36.080Z,1019.79
2023-04-05T05:00:36.365Z,1019.78
2023-04-05T05:01:36.403Z,1019.83
2023-04-05T05:02:35.388Z,1019.78
2023-04-05T05:03:35.358Z,1019.83
2023-04-05T05:04:36.458Z,1019.89
2023-04-05T05:05:36.047Z,1019.80
2023-04-05T05:06:35.999Z,1019.81
2023-04-05T05:07:36.256Z,1019.83
2023-04-05T05:08:35.988Z,1019.80
2023-04-05T05:09:35.299Z,1019.79
2023-04-05T05:10:35.294Z,1019.83
2023-04-05T05:11:35.307Z,1019.84
2023-04-05T05:12:36.209Z,1019.80
2023-04-05T05:13:35.246Z,1019.84
2023-04-05T05:14:35.253Z,1019.82
2023-04-05T05:15:36.201Z,1019.86
2023-04-05T05:16:35.252Z,1019.85
2023-04-05T05:17:35.913Z,1019.86
2023-04-05T05:18:35.886Z,1019.85
2023-04-05T05:19:35.875Z,1019.89
2023-04-05T05:20:36.140Z,1019.87
2023-04-05T05:21:35.200Z,1019.86
2023-04-05T05:22:35.163Z,1019.86
2023-04-05T05:23:35.833Z,1019.87
2023-04-05T05:24:35.829Z,1019.89
2023-04-05T05:25:36.030Z,1019.92
2023-04-05T05:26:35.198Z,1019.93
2023-04-05T05:27:35.110Z,1019.90
2023-04-05T05:28:35.802Z,1019.86
2023-04-05T05:29:35.773Z,1019.92
2023-04-05T05:30:35.824Z,1019.87
2023-04-05T05:31:35.827Z,1019.85
2023-04-05T05:32:35.072Z,1019.87
2023-04-05T05:33:35.050Z,1019.86
2023-04-05T05:34:35.728Z,1019.87
2023-04-05T05:35:35.758Z,1019.89
2023-04-05T05:36:35.678Z,1019.95
2023-04-05T05:37:34.999Z,1019.96
2023-04-05T05:38:34.998Z,1019.92
2023-04-05T05:39:34.987Z,1019.98
2023-04-05T05:40:35.653Z,1019.98
2023-04-05T05:41:35.633Z,1020.02
2023-04-05T05:42:35.631Z,1020.05
2023-04-05T05:43:35.893Z,1020.04
2023-04-05T05:44:34.928Z,1020.05
2023-04-05T05:45:34.939Z,1020.01
2023-04-05T05:46:35.020Z,1020.05
2023-04-05T05:47:35.632Z,1020.01
2023-04-05T05:48:35.578Z,1020.01
2023-04-05T05:49:34.873Z,1020.02
2023-04-05T05:50:34.880Z,1020.05
2023-04-05T05:51:35.527Z,1020.01
2023-04-05T05:52:34.846Z,1020.03
2023-04-05T05:53:35.522Z,1020.07
2023-04-05T05:54:34.823Z,1020.06
2023-04-05T05:55:34.827Z,1020.06
2023-04-05T05:56:35.463Z,1020.07
2023-04-05T05:57:34.817Z,1020.10
2023-04-05T05:58:35.477Z,1020.16
2023-04-05T05:59:35.761Z,1020.15
2023-04-05T06:00:35.720Z,1020.06
2023-04-05T06:01:35.430Z,1020.06
2023-04-05T06:02:35.739Z,1020.13
2023-04-05T06:03:34.843Z,1020.14
2023-04-05T06:04:35.510Z,1020.10
2023-04-05T06:05:36.148Z,1020.16
2023-04-05T06:06:36.597Z,1020.14
2023-04-05T06:07:34.713Z,1020.14
2023-04-05T06:08:34.659Z,1020.15
2023-04-05T06:09:35.422Z,1020.16
2023-04-05T06:10:35.343Z,1020.15
2023-04-05T06:11:37.127Z,1020.17
2023-04-05T06:12:35.636Z,1020.16
2023-04-05T06:13:34.630Z,1020.19
2023-04-05T06:14:34.617Z,1020.17
2023-04-05T06:15:35.282Z,1020.14
2023-04-05T06:16:35.302Z,1020.17
2023-04-05T06:17:35.262Z,1020.19
2023-04-05T06:18:35.289Z,1020.17
2023-04-05T06:19:34.560Z,1020.17
2023-04-05T06:20:35.232Z,1020.15
2023-04-05T06:21:35.222Z,1020.17
2023-04-05T06:22:35.197Z,1020.13
2023-04-05T06:23:35.203Z,1020.15
2023-04-05T06:24:35.190Z,1020.16
2023-04-05T06:25:34.496Z,1020.15
2023-04-05T06:26:35.163Z,1020.15
2023-04-05T06:27:35.140Z,1020.19
2023-04-05T06:28:35.448Z,1020.18
2023-04-05T06:29:35.132Z,1020.22
2023-04-05T06:30:34.442Z,1020.27
2023-04-05T06:31:35.485Z,1020.19
2023-04-05T06:32:35.380Z,1020.25
2023-04-05T06:33:35.084Z,1020.23
2023-04-05T06:34:34.423Z,1020.21
2023-04-05T06:35:35.069Z,1020.19
2023-04-05T06:36:34.598Z,1020.20
2023-04-05T06:37:34.368Z,1020.18
2023-04-05T06:38:34.337Z,1020.24
2023-04-05T06:39:35.024Z,1020.22
2023-04-05T06:40:35.008Z,1020.26
2023-04-05T06:41:35.070Z,1020.23
2023-04-05T06:42:34.308Z,1020.27
2023-04-05T06:43:34.287Z,1020.27
2023-04-05T06:44:34.283Z,1020.30
2023-04-05T06:45:34.965Z,1020.30
2023-04-05T06:46:34.945Z,1020.31
2023-04-05T06:47:34.288Z,1020.31
2023-04-05T06:48:34.919Z,1020.33
2023-04-05T06:49:34.927Z,1020.36
2023-04-05T06:50:34.218Z,1020.33
2023-04-05T06:51:34.997Z,1020.31
2023-04-05T06:52:34.854Z,1020.38
2023-04-05T06:53:34.861Z,1020.34
2023-04-05T06:54:34.173Z,1020.35
2023-04-05T06:55:34.172Z,1020.36
2023-04-05T06:56:35.066Z,1020.29
2023-04-05T06:57:34.806Z,1020.24
2023-04-05T06:58:35.074Z,1020.23
2023-04-05T06:59:34.225Z,1020.19
2023-04-05T07:00:34.788Z,1020.24
2023-04-05T07:01:35.088Z,1020.14
2023-04-05T07:02:36.195Z,1020.16
2023-04-05T07:03:35.046Z,1020.17
2023-04-05T07:04:34.124Z,1020.14
2023-04-05T07:05:34.041Z,1020.21
2023-04-05T07:06:34.981Z,1020.23
2023-04-05T07:07:34.038Z,1020.25
2023-04-05T07:08:34.731Z,1020.27
2023-04-05T07:09:34.036Z,1020.28
2023-04-05T07:10:35.979Z,1020.33
2023-04-05T07:11:34.957Z,1020.33
2023-04-05T07:12:34.637Z,1020.35
2023-04-05T07:13:34.649Z,1020.35
2023-04-05T07:14:34.635Z,1020.29
2023-04-05T07:15:34.625Z,1020.31
2023-04-05T07:16:34.627Z,1020.38
2023-04-05T07:17:34.596Z,1020.34
2023-04-05T07:18:34.785Z,1020.31
2023-04-05T07:19:34.840Z,1020.26
2023-04-05T07:20:34.570Z,1020.24
2023-04-05T07:21:34.565Z,1020.22
2023-04-05T07:22:34.540Z,1020.26
2023-04-05T07:23:34.537Z,1020.31
2023-04-05T07:24:34.788Z,1020.33
2023-04-05T07:25:34.795Z,1020.35
2023-04-05T07:26:34.506Z,1020.31
2023-04-05T07:27:33.854Z,1020.34
2023-04-05T07:28:34.493Z,1020.35
2023-04-05T07:29:34.471Z,1020.43
2023-04-05T07:30:34.480Z,1020.44
2023-04-05T07:31:34.448Z,1020.44
2023-04-05T07:32:33.843Z,1020.44
2023-04-05T07:33:33.751Z,1020.53
2023-04-05T07:34:34.418Z,1020.56
2023-04-05T07:35:34.431Z,1020.57
2023-04-05T07:36:34.943Z,1020.58
2023-04-05T07:37:33.741Z,1020.65
2023-04-05T07:38:33.728Z,1020.67
2023-04-05T07:39:33.697Z,1020.80
2023-04-05T07:40:34.354Z,1020.82
2023-04-05T07:41:33.664Z,1020.74
2023-04-05T07:42:33.675Z,1020.75
2023-04-05T07:43:34.324Z,1020.85
2023-04-05T07:44:33.633Z,1020.86
2023-04-05T07:45:34.301Z,1020.92
2023-04-05T07:46:33.674Z,1020.96
2023-04-05T07:47:34.302Z,1020.88
2023-04-05T07:48:33.600Z,1020.88
2023-04-05T07:49:34.297Z,1020.91
2023-04-05T07:50:33.580Z,1020.90
2023-04-05T07:51:34.233Z,1020.91
2023-04-05T07:52:33.556Z,1020.85
2023-04-05T07:53:33.550Z,1020.93
2023-04-05T07:54:34.205Z,1020.87
2023-04-05T07:55:34.197Z,1020.83
2023-04-05T07:56:34.178Z,1020.97
2023-04-05T07:57:33.499Z,1020.89
2023-04-05T07:58:33.503Z,1020.74
2023-04-05T07:59:34.242Z,1020.74
2023-04-05T08:00:34.398Z,1020.76
2023-04-05T08:01:34.121Z,1020.73
2023-04-05T08:02:33.515Z,1020.69
2023-04-05T08:03:33.498Z,1020.60
2023-04-05T08:04:33.533Z,1020.54
2023-04-05T08:05:34.086Z,1020.59
2023-04-05T08:06:33.379Z,1020.60
2023-04-05T08:07:33.371Z,1020.53
2023-04-05T08:08:33.660Z,1020.53
2023-04-05T08:09:33.357Z,1020.50
2023-04-05T08:10:34.030Z,1020.46
2023-04-05T08:11:35.276Z,1020.42
2023-04-05T08:12:34.005Z,1020.49
2023-04-05T08:13:33.325Z,1020.45
2023-04-05T08:14:33.991Z,1020.38
2023-04-05T08:15:33.294Z,1020.35
2023-04-05T08:16:33.305Z,1020.38
2023-04-05T08:17:33.304Z,1020.37
2023-04-05T08:18:33.927Z,1020.33
2023-04-05T08:19:33.930Z,1020.30
2023-04-05T08:20:33.238Z,1020.29
2023-04-05T08:21:33.925Z,1020.23
2023-04-05T08:22:33.229Z,1020.23
2023-04-05T08:23:33.227Z,1020.22
2023-04-05T08:24:33.886Z,1020.11
2023-04-05T08:25:33.882Z,1020.12
2023-04-05T08:26:33.191Z,1020.13
2023-04-05T08:27:33.841Z,1020.15
2023-04-05T08:28:33.819Z,1020.13
2023-04-05T08:29:33.150Z,1020.17
2023-04-05T08:30:33.271Z,1020.09
2023-04-05T08:31:33.894Z,1020.20
2023-04-05T08:32:33.260Z,1020.16
2023-04-05T08:33:33.107Z,1020.23
2023-04-05T08:34:33.768Z,1020.16
2023-04-05T08:35:33.100Z,1020.13
2023-04-05T08:36:33.746Z,1020.16
2023-04-05T08:37:33.060Z,1020.12
2023-04-05T08:38:33.044Z,1020.14
2023-04-05T08:39:33.709Z,1020.10
2023-04-05T08:40:33.018Z,1020.08
2023-04-05T08:41:33.002Z,1020.10
2023-04-05T08:42:33.679Z,1020.10
2023-04-05T08:43:33.008Z,1020.10
2023-04-05T08:44:32.988Z,1020.10
2023-04-05T08:45:33.668Z,1020.09
2023-04-05T08:46:33.637Z,1020.07
2023-04-05T08:47:33.648Z,1020.07
2023-04-05T08:48:33.007Z,1020.14
2023-04-05T08:49:32.940Z,1020.18
2023-04-05T08:50:32.922Z,1020.22
2023-04-05T08:51:32.907Z,1020.17
2023-04-05T08:52:32.905Z,1020.16
2023-04-05T08:53:33.544Z,1020.08
2023-04-05T08:54:32.898Z,1020.09
2023-04-05T08:55:32.871Z,1020.10
2023-04-05T08:56:32.849Z,1020.07
2023-04-05T08:57:32.839Z,1020.03
2023-04-05T08:58:33.503Z,1019.97
2023-04-05T08:59:32.918Z,1019.91
2023-04-05T09:00:32.808Z,1019.89
2023-04-05T09:01:32.860Z,1019.87
2023-04-05T09:02:32.959Z,1019.78
2023-04-05T09:03:32.948Z,1019.76
2023-04-05T09:04:33.448Z,1019.73
2023-04-05T09:05:32.761Z,1019.73
2023-04-05T09:06:33.425Z,1019.71
2023-04-05T09:07:32.741Z,1019.75
2023-04-05T09:08:32.742Z,1019.69
2023-04-05T09:09:33.413Z,1019.78
2023-04-05T09:10:33.383Z,1019.72
2023-04-05T09:11:33.379Z,1019.65
2023-04-05T09:12:33.359Z,1019.76
2023-04-05T09:13:32.676Z,1019.73
2023-04-05T09:14:34.120Z,1019.76
2023-04-05T09:15:33.336Z,1019.72
2023-04-05T09:16:33.383Z,1019.76
2023-04-05T09:17:33.326Z,1019.74
2023-04-05T09:18:33.313Z,1019.72
2023-04-05T09:19:32.590Z,1019.70
2023-04-05T09:20:32.585Z,1019.72
2023-04-05T09:21:32.569Z,1019.69
2023-04-05T09:22:32.567Z,1019.69
2023-04-05T09:23:33.226Z,1019.67
2023-04-05T09:24:34.511Z,1019.71
2023-04-05T09:25:33.222Z,1019.66
2023-04-05T09:26:33.200Z,1019.73
2023-04-05T09:27:32.521Z,1019.61
2023-04-05T09:28:32.523Z,1019.62
2023-04-05T09:29:33.189Z,1019.67
2023-04-05T09:30:32.481Z,1019.70
2023-04-05T09:31:33.196Z,1019.70
2023-04-05T09:32:32.473Z,1019.66
2023-04-05T09:33:32.466Z,1019.65
2023-04-05T09:34:33.121Z,1019.68
2023-04-05T09:35:32.485Z,1019.65
2023-04-05T09:36:32.422Z,1019.63
2023-04-05T09:37:33.092Z,1019.59
2023-04-05T09:38:32.423Z,1019.62
2023-04-05T09:39:33.081Z,1019.56
2023-04-05T09:40:33.065Z,1019.53
2023-04-05T09:41:33.043Z,1019.50
2023-04-05T09:42:32.360Z,1019.57
2023-04-05T09:43:32.365Z,1019.53
2023-04-05T09:44:33.023Z,1019.60
2023-04-05T09:45:33.000Z,1019.51
2023-04-05T09:46:33.024Z,1019.51
2023-04-05T09:47:33.020Z,1019.49
2023-04-05T09:48:32.964Z,1019.53
2023-04-05T09:49:32.957Z,1019.55
2023-04-05T09:50:32.952Z,1019.54
2023-04-05T09:51:32.947Z,1019.54
2023-04-05T09:52:32.941Z,1019.49
2023-04-05T09:53:32.899Z,1019.59
2023-04-05T09:54:32.217Z,1019.54
2023-04-05T09:55:32.202Z,1019.50
2023-04-05T09:56:32.893Z,1019.51
2023-04-05T09:57:32.868Z,1019.54
2023-04-05T09:58:32.186Z,1019.55
2023-04-05T09:59:32.255Z,1019.54
2023-04-05T10:00:32.158Z,1019.53
2023-04-05T10:01:32.183Z,1019.55
2023-04-05T10:02:32.868Z,1019.52
2023-04-05T10:03:32.870Z,1019.52
2023-04-05T10:04:32.100Z,1019.52
2023-04-05T10:05:32.138Z,1019.50
2023-04-05T10:06:32.802Z,1019.54
2023-04-05T10:07:32.070Z,1019.52
2023-04-05T10:08:32.082Z,1019.53
2023-04-05T10:09:34.429Z,1019.59
2023-04-05T10:10:32.032Z,1019.59
2023-04-05T10:11:32.711Z,1019.53
2023-04-05T10:12:32.017Z,1019.50
2023-04-05T10:13:32.185Z,1019.46
2023-04-05T10:14:32.682Z,1019.47
2023-04-05T10:15:32.664Z,1019.45
2023-04-05T10:16:32.701Z,1019.42
2023-04-05T10:17:32.674Z,1019.48
2023-04-05T10:18:31.963Z,1019.38
2023-04-05T10:19:31.924Z,1019.36
2023-04-05T10:20:32.617Z,1019.39
2023-04-05T10:21:32.602Z,1019.32
2023-04-05T10:22:31.908Z,1019.36
2023-04-05T10:23:31.912Z,1019.30
2023-04-05T10:24:33.821Z,1019.37
2023-04-05T10:25:32.557Z,1019.37
2023-04-05T10:26:31.867Z,1019.35
2023-04-05T10:27:32.547Z,1019.38
2023-04-05T10:28:32.501Z,1019.34
2023-04-05T10:29:32.564Z,1019.31
2023-04-05T10:30:31.815Z,1019.32
2023-04-05T10:31:37.724Z,1019.33
2023-04-05T10:32:32.834Z,1019.30
2023-04-05T10:33:32.516Z,1019.33
2023-04-05T10:34:32.477Z,1019.38
2023-04-05T10:35:31.799Z,1019.38
2023-04-05T10:36:32.488Z,1019.37
2023-04-05T10:37:32.428Z,1019.35
2023-04-05T10:38:32.395Z,1019.31
2023-04-05T10:39:31.767Z,1019.24
2023-04-05T10:40:31.714Z,1019.24
2023-04-05T10:41:31.700Z,1019.24
2023-04-05T10:42:32.368Z,1019.25
2023-04-05T10:43:32.359Z,1019.21
2023-04-05T10:44:31.654Z,1019.19
2023-04-05T10:45:32.642Z,1019.14
2023-04-05T10:46:31.680Z,1019.20
2023-04-05T10:47:31.775Z,1019.21
2023-04-05T10:48:31.644Z,1019.15
2023-04-05T10:49:31.659Z,1019.13
2023-04-05T10:50:31.609Z,1019.15
2023-04-05T10:51:31.600Z,1019.09
2023-04-05T10:52:31.572Z,1019.11
2023-04-05T10:53:31.619Z,1019.14
2023-04-05T10:54:31.559Z,1019.10
2023-04-05T10:55:32.306Z,1019.09
2023-04-05T10:56:31.609Z,1019.07
2023-04-05T10:57:31.513Z,1019.05
2023-04-05T10:58:31.540Z,1019.03
2023-04-05T10:59:32.260Z,1018.97
2023-04-05T11:00:31.559Z,1019.00
2023-04-05T11:01:32.182Z,1018.98
2023-04-05T11:02:31.550Z,1018.95
2023-04-05T11:03:31.597Z,1018.92
2023-04-05T11:04:32.241Z,1018.90
2023-04-05T11:05:32.118Z,1018.88
2023-04-05T11:06:31.443Z,1018.95
2023-04-05T11:07:32.110Z,1019.03
2023-04-05T11:08:32.068Z,1018.93
2023-04-05T11:09:32.085Z,1018.93
2023-04-05T11:10:31.398Z,1018.93
2023-04-05T11:11:31.378Z,1018.88
2023-04-05T11:12:32.082Z,1018.88
2023-04-05T11:13:31.362Z,1018.87
2023-04-05T11:14:31.345Z,1018.86
2023-04-05T11:15:31.341Z,1018.89
2023-04-05T11:16:31.360Z,1018.83
2023-04-05T11:17:31.333Z,1018.85
2023-04-05T11:18:31.963Z,1018.82
2023-04-05T11:19:31.979Z,1018.85
2023-04-05T11:20:31.287Z,1018.78
2023-04-05T11:21:31.265Z,1018.83
2023-04-05T11:22:31.943Z,1018.77
2023-04-05T11:23:31.917Z,1018.80
2023-04-05T11:24:34.628Z,1018.77
2023-04-05T11:25:31.232Z,1018.78
2023-04-05T11:26:31.942Z,1018.67
2023-04-05T11:27:31.202Z,1018.77
2023-04-05T11:28:31.226Z,1018.75
2023-04-05T11:29:31.172Z,1018.65
2023-04-05T11:30:31.858Z,1018.66
2023-04-05T11:31:31.195Z,1018.67
2023-04-05T11:32:31.161Z,1018.70
2023-04-05T11:33:31.812Z,1018.71
2023-04-05T11:34:31.810Z,1018.72
2023-04-05T11:35:31.824Z,1018.68
2023-04-05T11:36:31.111Z,1018.75
2023-04-05T11:37:31.093Z,1018.75
2023-04-05T11:38:31.091Z,1018.74
2023-04-05T11:39:31.087Z,1018.68
2023-04-05T11:40:31.748Z,1018.68
2023-04-05T11:41:31.740Z,1018.77
2023-04-05T11:42:31.732Z,1018.74
2023-04-05T11:43:31.698Z,1018.69
2023-04-05T11:44:31.716Z,1018.63
2023-04-05T11:45:32.321Z,1018.69
2023-04-05T11:46:31.855Z,1018.62
2023-04-05T11:47:31.700Z,1018.64
2023-04-05T11:48:30.999Z,1018.62
2023-04-05T11:49:30.970Z,1018.61
2023-04-05T11:50:30.958Z,1018.56
2023-04-05T11:51:31.633Z,1018.52
2023-04-05T11:52:32.878Z,1018.55
2023-04-05T11:53:31.606Z,1018.52
2023-04-05T11:54:30.943Z,1018.57
2023-04-05T11:55:30.917Z,1018.53
2023-04-05T11:56:30.903Z,1018.51
2023-04-05T11:57:31.834Z,1018.51
2023-04-05T11:58:31.548Z,1018.51
2023-04-05T11:59:30.905Z,1018.49
2023-04-05T12:00:30.843Z,1018.53
2023-04-05T12:01:30.857Z,1018.59
2023-04-05T12:02:30.882Z,1018.53
2023-04-05T12:03:30.910Z,1018.48
2023-04-05T12:04:30.962Z,1018.54
2023-04-05T12:05:31.477Z,1018.47